createdAt,value
2019-05-29T00:00:05.729Z,17.28
2019-05-29T00:02:34.465Z,17.18
2019-05-29T00:05:03.543Z,17.12
2019-05-29T00:07:32.102Z,17.07
2019-05-29T00:10:00.734Z,16.99
2019-05-29T00:12:29.262Z,17.01
2019-05-29T00:14:57.823Z,17.03
2019-05-29T00:17:26.314Z,17.05
2019-05-29T00:19:55.102Z,17.04
2019-05-29T00:22:23.730Z,16.98
2019-05-29T00:24:52.217Z,16.99
2019-05-29T00:27:20.751Z,16.90
2019-05-29T00:29:49.398Z,16.83
2019-05-29T00:32:18.015Z,16.82
2019-05-29T00:34:46.604Z,16.87
2019-05-29T00:37:15.102Z,16.93
2019-05-29T00:39:43.770Z,16.91
2019-05-29T00:42:13.241Z,16.85
2019-05-29T00:44:42.696Z,16.91
2019-05-29T00:47:11.542Z,16.87
2019-05-29T00:49:40.213Z,16.80
2019-05-29T00:52:09.841Z,16.77
2019-05-29T00:54:38.624Z,16.66
2019-05-29T00:57:07.360Z,16.57
2019-05-29T00:59:36.940Z,16.53
2019-05-29T01:02:05.692Z,16.50
2019-05-29T01:04:34.319Z,16.43
2019-05-29T01:07:02.968Z,16.37
2019-05-29T01:09:31.501Z,16.31
2019-05-29T01:12:00.069Z,16.27
2019-05-29T01:14:28.566Z,16.27
2019-05-29T01:16:57.257Z,16.23
2019-05-29T01:19:25.883Z,16.24
2019-05-29T01:21:55.613Z,16.17
2019-05-29T01:24:24.884Z,16.19
2019-05-29T01:26:53.618Z,16.13
2019-05-29T01:29:23.290Z,16.07
2019-05-29T01:31:52.057Z,16.10
2019-05-29T01:34:21.905Z,16.07
2019-05-29T01:36:50.485Z,16.09
2019-05-29T01:39:19.369Z,16.07
2019-05-29T01:41:48.060Z,16.02
2019-05-29T01:44:17.390Z,15.97
2019-05-29T01:46:46.005Z,15.86
2019-05-29T01:49:16.017Z,15.90
2019-05-29T01:51:44.749Z,15.87
2019-05-29T01:54:13.436Z,15.85
2019-05-29T01:56:42.059Z,15.80
2019-05-29T01:59:10.692Z,15.77
2019-05-29T02:01:39.366Z,15.79
2019-05-29T02:04:08.001Z,15.73
2019-05-29T02:06:36.636Z,15.78
2019-05-29T02:09:06.905Z,15.79
2019-05-29T02:11:35.552Z,15.74
2019-05-29T02:14:04.175Z,15.76
2019-05-29T02:16:32.846Z,15.71
2019-05-29T02:19:01.342Z,15.62
2019-05-29T02:21:30.020Z,15.53
2019-05-29T02:23:58.698Z,15.50
2019-05-29T02:26:27.253Z,15.46
2019-05-29T02:28:55.757Z,15.37
2019-05-29T02:31:26.596Z,15.34
2019-05-29T02:33:54.739Z,15.28
2019-05-29T02:36:24.546Z,15.27
2019-05-29T02:38:53.760Z,15.22
2019-05-29T02:41:24.219Z,15.20
2019-05-29T02:43:52.610Z,15.19
2019-05-29T02:46:21.753Z,15.20
2019-05-29T02:48:50.787Z,15.20
2019-05-29T02:51:19.808Z,15.16
2019-05-29T02:53:48.548Z,15.19
2019-05-29T02:56:17.119Z,15.23
2019-05-29T02:58:46.148Z,15.22
2019-05-29T03:01:14.825Z,15.26
2019-05-29T03:03:43.382Z,15.30
2019-05-29T03:06:13.020Z,15.30
2019-05-29T03:08:41.891Z,15.37
2019-05-29T03:11:10.541Z,15.49
2019-05-29T03:13:39.209Z,15.81
2019-05-29T03:16:12.097Z,16.28
2019-05-29T03:18:38.226Z,16.83
2019-05-29T03:21:06.868Z,17.30
2019-05-29T03:23:36.380Z,17.64
2019-05-29T03:26:05.385Z,17.43
2019-05-29T03:28:34.910Z,17.36
2019-05-29T03:31:04.169Z,17.26
2019-05-29T03:33:41.042Z,17.05
2019-05-29T03:36:03.133Z,17.03
2019-05-29T03:38:32.672Z,16.83
2019-05-29T03:41:01.811Z,16.81
2019-05-29T03:43:31.175Z,16.98
2019-05-29T03:46:00.836Z,16.97
2019-05-29T03:48:29.861Z,17.03
2019-05-29T03:50:58.634Z,17.13
2019-05-29T03:53:27.243Z,17.25
2019-05-29T03:55:56.240Z,17.34
2019-05-29T03:58:26.265Z,17.50
2019-05-29T04:00:54.998Z,17.49
2019-05-29T04:03:23.646Z,17.50
2019-05-29T04:05:52.230Z,17.68
2019-05-29T04:08:20.833Z,17.86
2019-05-29T04:10:50.055Z,18.35
2019-05-29T04:13:18.687Z,19.96
2019-05-29T04:15:47.390Z,21.46
2019-05-29T04:18:19.731Z,22.57
2019-05-29T04:20:51.259Z,24.07
2019-05-29T04:23:20.532Z,25.13
2019-05-29T04:25:51.174Z,25.71
2019-05-29T04:28:20.812Z,26.16
2019-05-29T04:30:49.339Z,26.21
2019-05-29T04:33:17.855Z,25.25
2019-05-29T04:35:46.367Z,24.45
2019-05-29T04:38:15.054Z,23.47
2019-05-29T04:40:43.691Z,23.32
2019-05-29T04:43:12.315Z,22.97
2019-05-29T04:45:40.898Z,22.82
2019-05-29T04:48:09.545Z,22.59
2019-05-29T04:50:40.324Z,22.29
2019-05-29T04:53:08.498Z,22.22
2019-05-29T04:55:37.100Z,23.40
2019-05-29T04:58:05.734Z,25.09
2019-05-29T05:00:35.176Z,26.70
2019-05-29T05:03:03.763Z,27.68
2019-05-29T05:05:33.264Z,28.34
2019-05-29T05:08:02.016Z,28.36
2019-05-29T05:10:40.594Z,29.35
2019-05-29T05:13:08.865Z,30.18
2019-05-29T05:15:38.136Z,31.08
2019-05-29T05:18:07.503Z,31.32
2019-05-29T05:20:36.441Z,31.69
2019-05-29T05:23:05.407Z,31.46
2019-05-29T05:25:34.272Z,30.33
2019-05-29T05:28:02.934Z,30.27
2019-05-29T05:30:32.358Z,30.80
2019-05-29T05:33:01.106Z,31.12
2019-05-29T05:35:30.742Z,31.14
2019-05-29T05:37:59.308Z,31.00
2019-05-29T05:40:27.950Z,31.04
2019-05-29T05:42:56.641Z,31.31
2019-05-29T05:45:25.276Z,30.00
2019-05-29T05:47:57.779Z,30.00
2019-05-29T05:50:24.533Z,30.41
2019-05-29T05:52:53.287Z,29.56
2019-05-29T05:55:21.895Z,29.92
2019-05-29T05:57:50.503Z,29.88
2019-05-29T06:00:31.698Z,30.90
2019-05-29T06:03:00.626Z,29.62
2019-05-29T06:05:29.260Z,30.12
2019-05-29T06:07:57.817Z,31.41
2019-05-29T06:10:26.413Z,32.26
2019-05-29T06:12:55.044Z,33.03
2019-05-29T06:15:23.610Z,33.04
2019-05-29T06:18:16.904Z,33.18
2019-05-29T06:20:22.679Z,33.26
2019-05-29T06:22:51.252Z,30.27
2019-05-29T06:25:20.088Z,29.93
2019-05-29T06:27:48.716Z,30.83
2019-05-29T06:30:19.266Z,31.85
2019-05-29T06:32:47.932Z,32.29
2019-05-29T06:35:17.146Z,31.94
2019-05-29T06:37:46.287Z,31.61
2019-05-29T06:40:18.016Z,31.73
2019-05-29T06:42:46.531Z,31.49
2019-05-29T06:45:18.161Z,32.09
2019-05-29T06:47:46.862Z,32.86
2019-05-29T06:50:15.496Z,32.08
2019-05-29T06:52:43.991Z,31.20
2019-05-29T06:55:12.726Z,30.84
2019-05-29T06:57:42.612Z,30.70
2019-05-29T07:00:11.723Z,30.18
2019-05-29T07:02:40.884Z,30.98
2019-05-29T07:05:09.592Z,31.43
2019-05-29T07:07:38.374Z,32.24
2019-05-29T07:10:07.506Z,32.65
2019-05-29T07:12:36.390Z,32.88
2019-05-29T07:15:07.047Z,32.54
2019-05-29T07:17:36.315Z,32.79
2019-05-29T07:20:06.950Z,33.24
2019-05-29T07:22:36.892Z,34.04
2019-05-29T07:25:06.896Z,33.04
2019-05-29T07:27:36.715Z,32.81
2019-05-29T07:30:06.797Z,33.05
2019-05-29T07:32:35.474Z,32.38
2019-05-29T07:35:04.873Z,31.24
2019-05-29T07:37:33.414Z,30.95
2019-05-29T07:40:01.927Z,31.38
2019-05-29T07:42:30.567Z,31.43
2019-05-29T07:44:59.245Z,31.30
2019-05-29T07:47:27.747Z,30.37
2019-05-29T07:49:56.237Z,31.03
2019-05-29T07:52:24.930Z,31.22
2019-05-29T07:54:53.584Z,31.12
2019-05-29T07:57:22.219Z,31.47
2019-05-29T07:59:50.906Z,31.52
2019-05-29T08:02:19.551Z,32.23
2019-05-29T08:04:49.767Z,32.39
2019-05-29T08:07:18.635Z,33.02
2019-05-29T08:09:47.866Z,33.08
2019-05-29T08:12:16.608Z,33.07
2019-05-29T08:14:45.823Z,34.07
2019-05-29T08:17:14.520Z,34.33
2019-05-29T08:20:00.618Z,34.14
2019-05-29T08:22:13.491Z,33.25
2019-05-29T08:24:42.662Z,32.68
2019-05-29T08:27:11.278Z,31.40
2019-05-29T08:29:40.596Z,31.62
2019-05-29T08:32:09.252Z,30.84
2019-05-29T08:34:37.820Z,31.31
2019-05-29T08:37:07.583Z,30.43
2019-05-29T08:39:37.133Z,29.32
2019-05-29T08:42:22.681Z,28.96
2019-05-29T08:44:36.100Z,28.15
2019-05-29T08:47:10.577Z,28.09
2019-05-29T08:49:35.103Z,28.44
2019-05-29T08:52:11.785Z,28.58
2019-05-29T08:54:34.065Z,28.47
2019-05-29T08:57:02.584Z,29.65
2019-05-29T08:59:31.193Z,29.77
2019-05-29T09:01:59.856Z,30.19
2019-05-29T09:04:28.856Z,29.63
2019-05-29T09:06:57.400Z,29.10
2019-05-29T09:09:26.082Z,28.64
2019-05-29T09:11:54.714Z,27.68
2019-05-29T09:14:23.444Z,27.97
2019-05-29T09:16:52.095Z,28.17
2019-05-29T09:19:21.152Z,28.70
2019-05-29T09:21:51.181Z,29.28
2019-05-29T09:24:20.836Z,29.26
2019-05-29T09:26:49.463Z,28.91
2019-05-29T09:29:20.588Z,29.10
2019-05-29T09:31:48.476Z,29.57
2019-05-29T09:34:18.624Z,30.00
2019-05-29T09:36:47.590Z,30.03
2019-05-29T09:39:16.739Z,29.98
2019-05-29T09:41:46.387Z,30.29
2019-05-29T09:44:31.111Z,29.93
2019-05-29T09:46:45.275Z,30.28
2019-05-29T09:49:13.938Z,30.00
2019-05-29T09:51:42.512Z,29.12
2019-05-29T09:54:11.057Z,28.79
2019-05-29T09:56:39.762Z,28.77
2019-05-29T09:59:08.447Z,28.47
2019-05-29T10:01:37.094Z,28.19
2019-05-29T10:04:06.214Z,28.06
2019-05-29T10:06:35.120Z,26.46
2019-05-29T10:09:05.450Z,26.50
2019-05-29T10:11:34.074Z,26.72
2019-05-29T10:14:03.492Z,26.87
2019-05-29T10:16:33.148Z,27.25
2019-05-29T10:19:03.085Z,27.06
2019-05-29T10:21:40.082Z,26.66
2019-05-29T10:24:04.190Z,26.40
2019-05-29T10:26:33.009Z,26.39
2019-05-29T10:29:08.307Z,26.39
2019-05-29T10:31:31.799Z,26.76
2019-05-29T10:34:00.456Z,27.94
2019-05-29T10:36:29.109Z,28.90
2019-05-29T10:38:57.727Z,28.43
2019-05-29T10:41:26.338Z,27.77
2019-05-29T10:43:54.986Z,27.77
2019-05-29T10:46:23.624Z,28.61
2019-05-29T10:48:54.314Z,29.35
2019-05-29T10:51:22.589Z,30.03
2019-05-29T10:53:53.075Z,30.31
2019-05-29T10:56:21.832Z,30.16
2019-05-29T10:58:56.411Z,27.98
2019-05-29T11:01:20.783Z,28.27
2019-05-29T11:03:49.427Z,28.68
2019-05-29T11:06:17.966Z,29.12
2019-05-29T11:08:47.887Z,29.58
2019-05-29T11:11:16.677Z,29.87
2019-05-29T11:13:46.634Z,30.05
2019-05-29T11:16:15.342Z,29.69
2019-05-29T11:18:44.023Z,30.11
2019-05-29T11:21:12.656Z,29.40
2019-05-29T11:23:41.292Z,28.39
2019-05-29T11:26:09.820Z,27.49
2019-05-29T11:28:38.453Z,27.49
2019-05-29T11:31:07.090Z,27.39
2019-05-29T11:33:35.688Z,27.43
2019-05-29T11:36:12.235Z,27.58
2019-05-29T11:38:34.814Z,27.13
2019-05-29T11:41:23.646Z,27.17
2019-05-29T11:43:33.907Z,27.47
2019-05-29T11:46:02.547Z,27.62
2019-05-29T11:48:31.224Z,28.01
2019-05-29T11:50:59.915Z,27.88
2019-05-29T11:53:28.475Z,27.73
2019-05-29T11:55:57.753Z,27.95
2019-05-29T11:58:31.102Z,28.46
2019-05-29T12:00:57.195Z,28.93
2019-05-29T12:03:25.809Z,29.19
2019-05-29T12:05:55.354Z,29.24
2019-05-29T12:08:24.099Z,28.99
2019-05-29T12:10:53.185Z,29.11
2019-05-29T12:13:21.855Z,28.98
2019-05-29T12:15:51.487Z,29.15
2019-05-29T12:18:24.323Z,29.34
2019-05-29T12:20:51.967Z,29.72
2019-05-29T12:23:26.405Z,30.26
2019-05-29T12:26:11.658Z,30.05
2019-05-29T12:28:21.336Z,28.50
2019-05-29T12:30:49.974Z,28.32
2019-05-29T12:33:18.667Z,28.00
2019-05-29T12:35:50.167Z,27.44
2019-05-29T12:38:17.640Z,27.95
2019-05-29T12:40:46.285Z,27.51
2019-05-29T12:43:26.690Z,27.10
2019-05-29T12:45:45.267Z,27.54
2019-05-29T12:48:15.610Z,28.45
2019-05-29T12:50:44.205Z,28.95
2019-05-29T12:53:28.953Z,29.32
2019-05-29T12:55:43.316Z,29.35
2019-05-29T12:58:11.894Z,29.11
2019-05-29T13:00:40.579Z,29.57
2019-05-29T13:03:09.223Z,29.90
2019-05-29T13:05:37.789Z,30.13
2019-05-29T13:08:06.510Z,30.05
2019-05-29T13:10:35.145Z,30.07
2019-05-29T13:13:08.516Z,29.05
2019-05-29T13:15:34.234Z,28.96
2019-05-29T13:18:09.130Z,28.66
2019-05-29T13:20:33.230Z,28.60
2019-05-29T13:23:03.594Z,28.70
2019-05-29T13:25:32.281Z,28.77
2019-05-29T13:28:01.576Z,28.88
2019-05-29T13:30:31.671Z,28.96
2019-05-29T13:33:03.609Z,28.65
2019-05-29T13:35:30.715Z,28.69
2019-05-29T13:37:59.400Z,29.00
2019-05-29T13:40:28.056Z,29.09
2019-05-29T13:42:56.612Z,28.89
2019-05-29T13:45:25.269Z,29.15
2019-05-29T13:47:53.833Z,29.13
2019-05-29T13:50:22.480Z,29.12
2019-05-29T13:52:51.085Z,28.23
2019-05-29T13:55:19.662Z,28.37
2019-05-29T13:57:48.225Z,28.63
2019-05-29T14:00:33.178Z,28.35
2019-05-29T14:02:49.140Z,28.01
2019-05-29T14:05:18.275Z,28.39
2019-05-29T14:07:46.873Z,28.26
2019-05-29T14:10:16.009Z,28.01
2019-05-29T14:12:44.577Z,27.39
2019-05-29T14:15:13.759Z,26.98
2019-05-29T14:17:42.426Z,26.66
2019-05-29T14:20:11.329Z,26.51
2019-05-29T14:22:39.990Z,26.00
2019-05-29T14:25:09.591Z,25.84
2019-05-29T14:27:38.185Z,25.84
2019-05-29T14:30:10.409Z,25.92
2019-05-29T14:32:39.470Z,26.02
2019-05-29T14:35:09.495Z,26.13
2019-05-29T14:37:38.916Z,26.13
2019-05-29T14:40:09.832Z,26.29
2019-05-29T14:42:38.626Z,26.29
2019-05-29T14:45:08.205Z,26.30
2019-05-29T14:47:36.855Z,26.30
2019-05-29T14:50:08.783Z,26.45
2019-05-29T14:52:37.668Z,26.93
2019-05-29T14:55:07.032Z,26.92
2019-05-29T14:57:35.629Z,26.70
2019-05-29T15:00:20.972Z,26.50
2019-05-29T15:02:39.917Z,26.99
2019-05-29T15:05:09.731Z,26.99
2019-05-29T15:07:38.566Z,27.18
2019-05-29T15:10:19.679Z,27.76
2019-05-29T15:12:39.251Z,28.07
2019-05-29T15:15:11.394Z,28.04
2019-05-29T15:17:39.858Z,28.17
2019-05-29T15:20:09.872Z,28.39
2019-05-29T15:22:39.055Z,28.08
2019-05-29T15:25:18.408Z,27.16
2019-05-29T15:27:38.584Z,26.62
2019-05-29T15:30:08.750Z,26.36
2019-05-29T15:32:37.573Z,25.56
2019-05-29T15:35:11.029Z,25.31
2019-05-29T15:37:37.883Z,24.97
2019-05-29T15:40:08.767Z,24.66
2019-05-29T15:42:37.644Z,24.42
2019-05-29T15:45:11.812Z,24.30
2019-05-29T15:47:40.497Z,24.16
2019-05-29T15:50:11.405Z,24.02
2019-05-29T15:52:40.276Z,23.98
2019-05-29T15:55:27.406Z,24.05
2019-05-29T15:57:40.672Z,24.19
2019-05-29T16:00:11.577Z,24.26
2019-05-29T16:02:40.233Z,24.10
2019-05-29T16:05:10.925Z,23.90
2019-05-29T16:07:40.202Z,23.76
2019-05-29T16:10:13.092Z,23.87
2019-05-29T16:12:39.836Z,23.89
2019-05-29T16:15:09.200Z,23.78
2019-05-29T16:17:37.812Z,23.87
2019-05-29T16:20:10.074Z,23.87
2019-05-29T16:22:38.978Z,24.01
2019-05-29T16:25:08.605Z,24.07
2019-05-29T16:27:37.263Z,24.07
2019-05-29T16:30:11.378Z,23.95
2019-05-29T16:32:40.064Z,23.76
2019-05-29T16:35:09.491Z,23.88
2019-05-29T16:37:38.412Z,23.67
2019-05-29T16:40:18.113Z,23.66
2019-05-29T16:42:46.817Z,23.64
2019-05-29T16:45:16.432Z,23.54
2019-05-29T16:47:45.081Z,23.44
2019-05-29T16:50:14.937Z,23.49
2019-05-29T16:52:43.824Z,23.40
2019-05-29T16:55:15.336Z,23.44
2019-05-29T16:57:44.074Z,23.43
2019-05-29T17:00:15.643Z,23.40
2019-05-29T17:02:44.438Z,23.33
2019-05-29T17:05:13.688Z,23.09
2019-05-29T17:07:42.346Z,23.19
2019-05-29T17:10:14.328Z,23.21
2019-05-29T17:12:42.983Z,23.03
2019-05-29T17:15:14.798Z,22.92
2019-05-29T17:17:43.549Z,22.84
2019-05-29T17:20:15.037Z,22.57
2019-05-29T17:22:43.662Z,22.52
2019-05-29T17:25:12.273Z,22.53
2019-05-29T17:27:40.905Z,22.57
2019-05-29T17:30:09.838Z,22.47
2019-05-29T17:32:38.516Z,22.34
2019-05-29T17:35:09.158Z,22.30
2019-05-29T17:37:38.043Z,22.26
2019-05-29T17:40:07.373Z,22.18
2019-05-29T17:42:35.976Z,22.09
2019-05-29T17:45:06.788Z,21.95
2019-05-29T17:47:35.494Z,21.85
2019-05-29T17:50:08.376Z,21.59
2019-05-29T17:52:36.897Z,21.53
2019-05-29T17:55:18.500Z,21.44
2019-05-29T17:57:45.045Z,21.31
2019-05-29T18:00:20.562Z,21.23
2019-05-29T18:02:52.314Z,21.16
2019-05-29T18:05:20.493Z,21.10
2019-05-29T18:07:49.193Z,21.00
2019-05-29T18:10:20.333Z,20.88
2019-05-29T18:12:48.423Z,20.87
2019-05-29T18:15:19.520Z,20.78
2019-05-29T18:17:48.282Z,20.76
2019-05-29T18:20:17.882Z,20.62
2019-05-29T18:22:46.650Z,20.58
2019-05-29T18:25:15.281Z,20.54
2019-05-29T18:27:43.872Z,20.46
2019-05-29T18:30:14.370Z,20.40
2019-05-29T18:32:42.928Z,20.35
2019-05-29T18:35:11.701Z,20.32
2019-05-29T18:37:40.268Z,20.29
2019-05-29T18:40:12.633Z,20.35
2019-05-29T18:42:41.385Z,20.45
2019-05-29T18:45:20.204Z,20.42
2019-05-29T18:47:42.167Z,20.39
2019-05-29T18:50:11.849Z,20.34
2019-05-29T18:52:40.496Z,20.29
2019-05-29T18:55:09.915Z,20.28
2019-05-29T18:57:38.531Z,20.21
2019-05-29T19:00:08.054Z,20.17
2019-05-29T19:02:36.696Z,20.09
2019-05-29T19:05:06.346Z,20.04
2019-05-29T19:07:35.119Z,20.01
2019-05-29T19:10:06.717Z,20.01
2019-05-29T19:12:36.073Z,20.00
2019-05-29T19:15:06.938Z,20.03
2019-05-29T19:17:35.572Z,19.99
2019-05-29T19:20:04.952Z,19.94
2019-05-29T19:22:33.524Z,19.94
2019-05-29T19:25:02.199Z,19.91
2019-05-29T19:27:39.098Z,19.85
2019-05-29T19:30:01.206Z,19.78
2019-05-29T19:32:29.830Z,19.75
2019-05-29T19:34:58.493Z,19.59
2019-05-29T19:37:27.932Z,19.70
2019-05-29T19:39:56.571Z,19.72
2019-05-29T19:42:26.135Z,19.74
2019-05-29T19:44:54.667Z,19.66
2019-05-29T19:47:24.522Z,19.60
2019-05-29T19:49:53.395Z,19.50
2019-05-29T19:52:21.958Z,19.42
2019-05-29T19:54:50.546Z,19.41
2019-05-29T19:57:19.210Z,19.37
2019-05-29T19:59:48.011Z,19.35
2019-05-29T20:02:17.678Z,19.21
2019-05-29T20:04:46.281Z,19.13
2019-05-29T20:07:14.926Z,19.11
2019-05-29T20:09:43.620Z,19.06
2019-05-29T20:12:12.200Z,19.07
2019-05-29T20:14:40.837Z,19.03
2019-05-29T20:17:09.469Z,19.00
2019-05-29T20:19:40.857Z,18.99
2019-05-29T20:22:08.568Z,18.99
2019-05-29T20:24:37.172Z,18.92
2019-05-29T20:27:05.859Z,18.90
2019-05-29T20:29:34.564Z,18.83
2019-05-29T20:32:03.211Z,18.77
2019-05-29T20:34:32.777Z,18.72
2019-05-29T20:37:01.365Z,18.60
2019-05-29T20:39:30.230Z,18.53
2019-05-29T20:41:58.884Z,18.46
2019-05-29T20:44:27.511Z,18.41
2019-05-29T20:46:56.237Z,18.39
2019-05-29T20:49:24.831Z,18.34
2019-05-29T20:51:53.399Z,18.29
2019-05-29T20:54:22.023Z,18.26
2019-05-29T20:56:50.616Z,18.20
2019-05-29T20:59:19.173Z,18.17
2019-05-29T21:01:47.900Z,18.10
2019-05-29T21:04:16.934Z,18.13
2019-05-29T21:06:45.645Z,18.14
2019-05-29T21:09:14.217Z,18.15
2019-05-29T21:11:43.646Z,18.17
2019-05-29T21:14:12.298Z,18.13
2019-05-29T21:16:41.869Z,18.16
2019-05-29T21:19:10.431Z,18.14
2019-05-29T21:21:38.997Z,18.17
2019-05-29T21:24:07.733Z,18.19
2019-05-29T21:26:36.946Z,18.18
2019-05-29T21:29:05.625Z,18.15
2019-05-29T21:31:35.350Z,18.19
2019-05-29T21:34:04.034Z,18.23
2019-05-29T21:36:32.599Z,18.40
2019-05-29T21:39:01.291Z,18.31
2019-05-29T21:41:29.853Z,18.24
2019-05-29T21:43:58.834Z,18.22
2019-05-29T21:46:27.439Z,18.18
2019-05-29T21:48:56.072Z,18.21
2019-05-29T21:51:24.706Z,18.19
2019-05-29T21:53:53.240Z,18.15
2019-05-29T21:56:21.882Z,18.19
2019-05-29T21:59:03.059Z,18.18
2019-05-29T22:01:21.285Z,18.21
2019-05-29T22:03:49.918Z,18.16
2019-05-29T22:06:18.549Z,18.10
2019-05-29T22:08:47.216Z,18.05
2019-05-29T22:11:15.947Z,18.03
2019-05-29T22:13:44.694Z,18.05
2019-05-29T22:16:13.354Z,17.98
2019-05-29T22:18:41.992Z,18.08
2019-05-29T22:21:10.543Z,18.11
2019-05-29T22:23:39.235Z,18.08
2019-05-29T22:26:07.809Z,17.98
2019-05-29T22:28:36.363Z,18.02
2019-05-29T22:31:05.125Z,17.92
2019-05-29T22:33:33.757Z,17.96
2019-05-29T22:36:02.383Z,17.94
2019-05-29T22:38:30.977Z,17.95
2019-05-29T22:40:59.722Z,17.94
2019-05-29T22:43:28.351Z,17.94
2019-05-29T22:45:57.642Z,17.95
2019-05-29T22:48:26.298Z,18.00
2019-05-29T22:50:55.734Z,18.05
2019-05-29T22:53:24.333Z,18.07
2019-05-29T22:55:53.741Z,18.14
2019-05-29T22:58:22.400Z,18.06
2019-05-29T23:00:51.803Z,18.23
2019-05-29T23:03:20.315Z,18.26
2019-05-29T23:05:48.939Z,18.24
2019-05-29T23:08:17.604Z,18.15
2019-05-29T23:10:46.169Z,18.17
2019-05-29T23:13:14.758Z,18.19
2019-05-29T23:15:43.421Z,18.11
2019-05-29T23:18:11.985Z,18.08
2019-05-29T23:20:40.547Z,17.98
2019-05-29T23:23:09.103Z,17.97
2019-05-29T23:25:37.728Z,17.89
2019-05-29T23:28:06.294Z,17.87
2019-05-29T23:30:34.892Z,17.97
2019-05-29T23:33:03.547Z,17.94
2019-05-29T23:35:32.160Z,17.97
2019-05-29T23:38:01.309Z,18.04
2019-05-29T23:40:29.898Z,18.04
2019-05-29T23:42:59.445Z,17.99
2019-05-29T23:45:28.183Z,17.96
2019-05-29T23:47:57.636Z,17.98
2019-05-29T23:50:26.242Z,17.97
2019-05-29T23:52:55.603Z,17.94
2019-05-29T23:55:24.159Z,17.98
2019-05-29T23:57:53.687Z,18.09
